Chesterfield, MA (01012)

12:06 AM EDT on March 27, 2015 (GMT -0400)
Chesterfield | | Change Station
CLOSE
Current Station
Personal Weather Station
Location: Chesterfield, MA
Elevation: 1190 ft
Nearby Weather Stations

Elev 1190 ft 42.36 °N, 72.85 °W | Updated 11 minutes ago

Rain
Rain
37.5 °F
Feels Like 38 °F
N
1.0
Wind Variable Wind from North
Gusts 1.0 mph

Today
High -- | Low -- °F
--% Chance of Precip.
Yesterday
High -- | Low -- °F
Precip. -- in
6:42 AM 7:11 PM
Waxing Crescent, 48% visible
Pressure 29.67 in
Visibility 5.0 miles
Clouds Mostly Cloudy 600 ft
Overcast 1200 ft
Windchill 38 °F
Dew Point 37 °F
Humidity 97%
Rainfall in
Snow Depth Not available.
UV 0 out of 12
Pollen 4.60 out of 12
Air Quality Not available.
Flu Activity Not available.
SPECI KBAF 270404Z 36006KT 5SM RA BR BKN006 OVC012 05/04 A2967 RMK AO2 P0001 T00500039

More Conditions Fewer Conditions

Pressure 29.67 in
Visibility 5.0 miles
Clouds Mostly Cloudy 600 ft
Overcast 1200 ft
Windchill 38 °F
Dew Point 37 °F
Humidity 97%
Rainfall in
Snow Depth Not available.
UV 0 out of 12
Pollen 4.60 out of 12
Air Quality Not available.
Flu Activity Not available.
SPECI KBAF 270404Z 36006KT 5SM RA BR BKN006 OVC012 05/04 A2967 RMK AO2 P0001 T00500039

More Conditions Fewer Conditions

10-Day Weather Forecast

Almanac

Astronomy

Mar. 27, 2015 Rise Set
Actual Time
Civil Twilight
Nautical Twilight
Astronomical Twilight
Moon
Length of Visible Light
Length of Day
Tomorrow will be .
, % of the Moon is Illuminated

Today's Extremes

State Highs State Lows

Community

WunderPhotos

Upload Photos

1,808,706 photos uploaded!

WunderBlogs® & News

Nearby

Air Quality

  Air Quality AQ Index Pollutant
Not available.

Snow Depth

Station Depth Elevation

Earthquake Activity

City Distance Mag. Time & Date
Minimum magnitude displayed is 2.5.

Coastal Water Temperatures

Place Temperature

Stations

Nearby Weather Stations

Station Location Temp. Windchill Dew Point Humidity Wind Precip. Elev Updated Type